sensor_id;sensor_type;location;lat;lon;timestamp;P1;durP1;ratioP1;P2;durP2;ratioP2
18302;SDS011;9277;37.980;23.748;2023-09-07T00:00:42;3.53;;;2.22;;
18302;SDS011;9277;37.980;23.748;2023-09-07T00:03:11;8.07;;;2.50;;
18302;SDS011;9277;37.980;23.748;2023-09-07T00:05:37;5.75;;;2.55;;
18302;SDS011;9277;37.980;23.748;2023-09-07T00:08:05;6.18;;;2.15;;
18302;SDS011;9277;37.980;23.748;2023-09-07T00:10:32;7.75;;;2.28;;
18302;SDS011;9277;37.980;23.748;2023-09-07T00:13:00;2.38;;;2.17;;
18302;SDS011;9277;37.980;23.748;2023-09-07T00:15:27;3.88;;;1.75;;
18302;SDS011;9277;37.980;23.748;2023-09-07T00:17:55;5.68;;;2.42;;
18302;SDS011;9277;37.980;23.748;2023-09-07T00:20:22;5.10;;;2.53;;
18302;SDS011;9277;37.980;23.748;2023-09-07T00:22:49;5.88;;;2.60;;
18302;SDS011;9277;37.980;23.748;2023-09-07T00:25:15;3.97;;;2.10;;
18302;SDS011;9277;37.980;23.748;2023-09-07T00:27:42;2.70;;;2.00;;
18302;SDS011;9277;37.980;23.748;2023-09-07T00:30:09;3.22;;;2.10;;
18302;SDS011;9277;37.980;23.748;2023-09-07T00:32:37;6.65;;;2.47;;
18302;SDS011;9277;37.980;23.748;2023-09-07T00:35:05;7.15;;;2.38;;
18302;SDS011;9277;37.980;23.748;2023-09-07T00:37:32;8.45;;;2.72;;
18302;SDS011;9277;37.980;23.748;2023-09-07T00:39:59;6.85;;;2.47;;
18302;SDS011;9277;37.980;23.748;2023-09-07T00:42:26;2.40;;;2.20;;
18302;SDS011;9277;37.980;23.748;2023-09-07T00:44:53;4.38;;;2.13;;
18302;SDS011;9277;37.980;23.748;2023-09-07T00:47:20;7.45;;;2.35;;
18302;SDS011;9277;37.980;23.748;2023-09-07T00:49:47;4.88;;;2.38;;
18302;SDS011;9277;37.980;23.748;2023-09-07T00:52:16;5.85;;;2.13;;
18302;SDS011;9277;37.980;23.748;2023-09-07T00:54:43;6.70;;;2.10;;
18302;SDS011;9277;37.980;23.748;2023-09-07T00:57:10;8.20;;;2.75;;
18302;SDS011;9277;37.980;23.748;2023-09-07T00:59:37;5.43;;;2.40;;
18302;SDS011;9277;37.980;23.748;2023-09-07T01:02:04;5.03;;;2.55;;
18302;SDS011;9277;37.980;23.748;2023-09-07T01:04:31;7.38;;;2.97;;
18302;SDS011;9277;37.980;23.748;2023-09-07T01:07:00;4.93;;;2.35;;
18302;SDS011;9277;37.980;23.748;2023-09-07T01:09:30;2.53;;;2.33;;
18302;SDS011;9277;37.980;23.748;2023-09-07T01:11:57;7.28;;;2.80;;
18302;SDS011;9277;37.980;23.748;2023-09-07T01:14:24;10.25;;;3.08;;
18302;SDS011;9277;37.980;23.748;2023-09-07T01:16:51;6.15;;;2.55;;
18302;SDS011;9277;37.980;23.748;2023-09-07T01:19:17;5.22;;;3.35;;
18302;SDS011;9277;37.980;23.748;2023-09-07T01:21:47;5.70;;;3.47;;
18302;SDS011;9277;37.980;23.748;2023-09-07T01:24:14;7.85;;;3.90;;
18302;SDS011;9277;37.980;23.748;2023-09-07T01:26:42;11.98;;;4.22;;
18302;SDS011;9277;37.980;23.748;2023-09-07T01:29:08;6.65;;;3.95;;
18302;SDS011;9277;37.980;23.748;2023-09-07T01:31:35;13.73;;;4.60;;
18302;SDS011;9277;37.980;23.748;2023-09-07T01:34:03;7.20;;;4.20;;
18302;SDS011;9277;37.980;23.748;2023-09-07T01:36:31;7.85;;;4.38;;
18302;SDS011;9277;37.980;23.748;2023-09-07T01:39:03;8.38;;;4.55;;
18302;SDS011;9277;37.980;23.748;2023-09-07T01:41:32;7.28;;;4.50;;
18302;SDS011;9277;37.980;23.748;2023-09-07T01:43:58;8.63;;;4.75;;
18302;SDS011;9277;37.980;23.748;2023-09-07T01:46:27;6.30;;;4.80;;
18302;SDS011;9277;37.980;23.748;2023-09-07T01:48:54;7.53;;;4.63;;
18302;SDS011;9277;37.980;23.748;2023-09-07T01:51:20;9.90;;;4.70;;
18302;SDS011;9277;37.980;23.748;2023-09-07T01:53:47;10.32;;;5.10;;
18302;SDS011;9277;37.980;23.748;2023-09-07T01:56:16;14.23;;;5.32;;
18302;SDS011;9277;37.980;23.748;2023-09-07T01:58:42;8.40;;;5.40;;
18302;SDS011;9277;37.980;23.748;2023-09-07T02:01:19;10.90;;;5.45;;
18302;SDS011;9277;37.980;23.748;2023-09-07T02:03:46;7.80;;;5.40;;
18302;SDS011;9277;37.980;23.748;2023-09-07T02:06:13;7.03;;;5.05;;
18302;SDS011;9277;37.980;23.748;2023-09-07T02:08:40;8.27;;;5.07;;
18302;SDS011;9277;37.980;23.748;2023-09-07T02:11:06;8.43;;;5.40;;
18302;SDS011;9277;37.980;23.748;2023-09-07T02:13:35;9.32;;;5.45;;
18302;SDS011;9277;37.980;23.748;2023-09-07T02:16:03;6.93;;;5.55;;
18302;SDS011;9277;37.980;23.748;2023-09-07T02:18:29;7.18;;;5.00;;
18302;SDS011;9277;37.980;23.748;2023-09-07T02:21:00;7.35;;;4.90;;
18302;SDS011;9277;37.980;23.748;2023-09-07T02:23:27;10.25;;;5.53;;
18302;SDS011;9277;37.980;23.748;2023-09-07T02:25:54;6.95;;;5.47;;
18302;SDS011;9277;37.980;23.748;2023-09-07T02:28:21;9.35;;;5.80;;
18302;SDS011;9277;37.980;23.748;2023-09-07T02:30:49;7.95;;;6.10;;
18302;SDS011;9277;37.980;23.748;2023-09-07T02:33:16;12.32;;;6.90;;
18302;SDS011;9277;37.980;23.748;2023-09-07T02:35:42;7.45;;;5.47;;
18302;SDS011;9277;37.980;23.748;2023-09-07T02:38:09;10.18;;;6.25;;
18302;SDS011;9277;37.980;23.748;2023-09-07T02:40:39;12.27;;;6.35;;
18302;SDS011;9277;37.980;23.748;2023-09-07T02:43:07;9.73;;;5.75;;
18302;SDS011;9277;37.980;23.748;2023-09-07T02:45:33;10.10;;;7.20;;
18302;SDS011;9277;37.980;23.748;2023-09-07T02:48:02;9.75;;;6.22;;
18302;SDS011;9277;37.980;23.748;2023-09-07T02:50:29;12.10;;;6.60;;
18302;SDS011;9277;37.980;23.748;2023-09-07T02:52:56;9.38;;;6.20;;
18302;SDS011;9277;37.980;23.748;2023-09-07T02:55:23;11.30;;;6.68;;
18302;SDS011;9277;37.980;23.748;2023-09-07T02:57:49;10.52;;;6.63;;
18302;SDS011;9277;37.980;23.748;2023-09-07T03:00:19;9.45;;;6.22;;
18302;SDS011;9277;37.980;23.748;2023-09-07T03:02:46;11.00;;;6.65;;
18302;SDS011;9277;37.980;23.748;2023-09-07T03:05:15;13.93;;;7.00;;
18302;SDS011;9277;37.980;23.748;2023-09-07T03:07:44;7.95;;;6.13;;
18302;SDS011;9277;37.980;23.748;2023-09-07T03:10:11;13.65;;;6.57;;
18302;SDS011;9277;37.980;23.748;2023-09-07T03:12:37;11.93;;;6.40;;
18302;SDS011;9277;37.980;23.748;2023-09-07T03:15:04;11.45;;;6.50;;
18302;SDS011;9277;37.980;23.748;2023-09-07T03:17:31;10.40;;;6.60;;
18302;SDS011;9277;37.980;23.748;2023-09-07T03:19:58;14.57;;;6.85;;
18302;SDS011;9277;37.980;23.748;2023-09-07T03:22:27;12.55;;;6.90;;
18302;SDS011;9277;37.980;23.748;2023-09-07T03:24:56;9.32;;;6.95;;
18302;SDS011;9277;37.980;23.748;2023-09-07T03:27:23;11.82;;;6.82;;
18302;SDS011;9277;37.980;23.748;2023-09-07T03:29:49;9.07;;;7.03;;
18302;SDS011;9277;37.980;23.748;2023-09-07T03:32:16;13.40;;;6.43;;
18302;SDS011;9277;37.980;23.748;2023-09-07T03:34:43;13.57;;;6.45;;
18302;SDS011;9277;37.980;23.748;2023-09-07T03:37:10;13.32;;;7.15;;
18302;SDS011;9277;37.980;23.748;2023-09-07T03:39:38;9.77;;;6.85;;
18302;SDS011;9277;37.980;23.748;2023-09-07T03:42:05;17.05;;;7.60;;
18302;SDS011;9277;37.980;23.748;2023-09-07T03:44:31;9.52;;;6.88;;
18302;SDS011;9277;37.980;23.748;2023-09-07T03:46:58;11.68;;;7.45;;
18302;SDS011;9277;37.980;23.748;2023-09-07T03:49:25;8.00;;;5.43;;
18302;SDS011;9277;37.980;23.748;2023-09-07T03:51:51;8.18;;;5.28;;
18302;SDS011;9277;37.980;23.748;2023-09-07T03:54:18;9.48;;;5.65;;
18302;SDS011;9277;37.980;23.748;2023-09-07T03:56:49;10.52;;;5.47;;
18302;SDS011;9277;37.980;23.748;2023-09-07T03:59:16;14.02;;;6.03;;
18302;SDS011;9277;37.980;23.748;2023-09-07T04:01:42;12.43;;;5.40;;
18302;SDS011;9277;37.980;23.748;2023-09-07T04:04:09;9.43;;;5.85;;
18302;SDS011;9277;37.980;23.748;2023-09-07T04:06:38;11.90;;;5.80;;
18302;SDS011;9277;37.980;23.748;2023-09-07T04:09:04;12.23;;;5.95;;
18302;SDS011;9277;37.980;23.748;2023-09-07T04:11:31;10.85;;;5.78;;
18302;SDS011;9277;37.980;23.748;2023-09-07T04:13:59;11.10;;;5.38;;
18302;SDS011;9277;37.980;23.748;2023-09-07T04:16:26;9.65;;;5.93;;
18302;SDS011;9277;37.980;23.748;2023-09-07T04:18:53;9.18;;;6.28;;
18302;SDS011;9277;37.980;23.748;2023-09-07T04:21:20;11.13;;;5.57;;
18302;SDS011;9277;37.980;23.748;2023-09-07T04:23:46;7.75;;;5.30;;
18302;SDS011;9277;37.980;23.748;2023-09-07T04:26:13;10.35;;;5.40;;
18302;SDS011;9277;37.980;23.748;2023-09-07T04:28:40;13.88;;;6.03;;
18302;SDS011;9277;37.980;23.748;2023-09-07T04:31:08;13.30;;;6.03;;
18302;SDS011;9277;37.980;23.748;2023-09-07T04:33:35;10.48;;;6.28;;
18302;SDS011;9277;37.980;23.748;2023-09-07T04:36:08;16.38;;;6.18;;
18302;SDS011;9277;37.980;23.748;2023-09-07T04:38:35;12.80;;;6.63;;
18302;SDS011;9277;37.980;23.748;2023-09-07T04:41:05;11.32;;;6.38;;
18302;SDS011;9277;37.980;23.748;2023-09-07T04:43:32;12.63;;;6.53;;
18302;SDS011;9277;37.980;23.748;2023-09-07T04:45:59;13.80;;;6.90;;
18302;SDS011;9277;37.980;23.748;2023-09-07T04:48:27;11.52;;;6.63;;
18302;SDS011;9277;37.980;23.748;2023-09-07T04:50:57;11.45;;;6.60;;
18302;SDS011;9277;37.980;23.748;2023-09-07T04:53:24;10.80;;;6.75;;
18302;SDS011;9277;37.980;23.748;2023-09-07T04:55:52;15.98;;;7.38;;
18302;SDS011;9277;37.980;23.748;2023-09-07T04:58:19;11.38;;;7.00;;
18302;SDS011;9277;37.980;23.748;2023-09-07T05:00:45;11.00;;;6.72;;
18302;SDS011;9277;37.980;23.748;2023-09-07T05:03:12;9.65;;;6.47;;
18302;SDS011;9277;37.980;23.748;2023-09-07T05:05:40;12.52;;;7.45;;
18302;SDS011;9277;37.980;23.748;2023-09-07T05:08:07;14.57;;;7.15;;
18302;SDS011;9277;37.980;23.748;2023-09-07T05:10:34;16.17;;;8.18;;
18302;SDS011;9277;37.980;23.748;2023-09-07T05:13:01;14.88;;;7.35;;
18302;SDS011;9277;37.980;23.748;2023-09-07T05:15:28;18.95;;;8.35;;
18302;SDS011;9277;37.980;23.748;2023-09-07T05:17:55;16.63;;;7.88;;
18302;SDS011;9277;37.980;23.748;2023-09-07T05:20:21;16.65;;;7.10;;
18302;SDS011;9277;37.980;23.748;2023-09-07T05:22:50;13.68;;;7.68;;
18302;SDS011;9277;37.980;23.748;2023-09-07T05:25:16;15.27;;;7.70;;
18302;SDS011;9277;37.980;23.748;2023-09-07T05:27:45;22.40;;;8.55;;
18302;SDS011;9277;37.980;23.748;2023-09-07T05:30:12;14.88;;;7.72;;
18302;SDS011;9277;37.980;23.748;2023-09-07T05:32:38;16.20;;;7.00;;
18302;SDS011;9277;37.980;23.748;2023-09-07T05:35:07;14.20;;;7.22;;
18302;SDS011;9277;37.980;23.748;2023-09-07T05:37:35;13.55;;;8.23;;
18302;SDS011;9277;37.980;23.748;2023-09-07T05:40:04;17.88;;;8.00;;
18302;SDS011;9277;37.980;23.748;2023-09-07T05:42:30;13.95;;;7.70;;
18302;SDS011;9277;37.980;23.748;2023-09-07T05:44:57;13.05;;;7.55;;
18302;SDS011;9277;37.980;23.748;2023-09-07T05:47:24;15.25;;;8.48;;
18302;SDS011;9277;37.980;23.748;2023-09-07T05:49:51;12.15;;;7.78;;
18302;SDS011;9277;37.980;23.748;2023-09-07T05:52:18;15.30;;;8.00;;
18302;SDS011;9277;37.980;23.748;2023-09-07T05:54:44;13.55;;;7.65;;
18302;SDS011;9277;37.980;23.748;2023-09-07T05:57:13;12.25;;;8.07;;
18302;SDS011;9277;37.980;23.748;2023-09-07T05:59:39;17.20;;;7.97;;
18302;SDS011;9277;37.980;23.748;2023-09-07T06:02:06;13.75;;;7.40;;
18302;SDS011;9277;37.980;23.748;2023-09-07T06:04:33;12.93;;;7.82;;
18302;SDS011;9277;37.980;23.748;2023-09-07T06:07:00;13.02;;;7.15;;
18302;SDS011;9277;37.980;23.748;2023-09-07T06:09:27;13.35;;;7.35;;
18302;SDS011;9277;37.980;23.748;2023-09-07T06:11:55;17.13;;;7.05;;
18302;SDS011;9277;37.980;23.748;2023-09-07T06:14:23;9.70;;;6.75;;
18302;SDS011;9277;37.980;23.748;2023-09-07T06:16:49;11.45;;;6.38;;
18302;SDS011;9277;37.980;23.748;2023-09-07T06:19:16;16.35;;;6.45;;
18302;SDS011;9277;37.980;23.748;2023-09-07T06:21:43;9.27;;;6.05;;
18302;SDS011;9277;37.980;23.748;2023-09-07T06:24:10;10.32;;;6.82;;
18302;SDS011;9277;37.980;23.748;2023-09-07T06:26:36;12.40;;;5.88;;
18302;SDS011;9277;37.980;23.748;2023-09-07T06:29:03;13.35;;;6.85;;
18302;SDS011;9277;37.980;23.748;2023-09-07T06:31:31;11.98;;;6.60;;
18302;SDS011;9277;37.980;23.748;2023-09-07T06:33:58;11.98;;;7.07;;
18302;SDS011;9277;37.980;23.748;2023-09-07T06:36:25;13.82;;;6.68;;
18302;SDS011;9277;37.980;23.748;2023-09-07T06:38:51;13.05;;;6.25;;
18302;SDS011;9277;37.980;23.748;2023-09-07T06:41:18;13.57;;;6.03;;
18302;SDS011;9277;37.980;23.748;2023-09-07T06:43:45;9.85;;;6.00;;
18302;SDS011;9277;37.980;23.748;2023-09-07T06:46:11;10.23;;;6.20;;
18302;SDS011;9277;37.980;23.748;2023-09-07T06:48:40;11.40;;;6.38;;
18302;SDS011;9277;37.980;23.748;2023-09-07T06:51:06;11.60;;;6.60;;
18302;SDS011;9277;37.980;23.748;2023-09-07T06:53:34;14.30;;;7.10;;
18302;SDS011;9277;37.980;23.748;2023-09-07T06:56:02;12.93;;;6.70;;
18302;SDS011;9277;37.980;23.748;2023-09-07T06:58:28;13.57;;;6.55;;
18302;SDS011;9277;37.980;23.748;2023-09-07T07:00:57;11.55;;;6.70;;
18302;SDS011;9277;37.980;23.748;2023-09-07T07:03:25;13.68;;;7.57;;
18302;SDS011;9277;37.980;23.748;2023-09-07T07:05:54;12.98;;;7.40;;
18302;SDS011;9277;37.980;23.748;2023-09-07T07:08:21;13.55;;;8.30;;
18302;SDS011;9277;37.980;23.748;2023-09-07T07:10:48;16.95;;;8.27;;
18302;SDS011;9277;37.980;23.748;2023-09-07T07:13:14;15.57;;;8.15;;
18302;SDS011;9277;37.980;23.748;2023-09-07T07:15:41;13.63;;;7.93;;
18302;SDS011;9277;37.980;23.748;2023-09-07T07:18:08;17.58;;;9.23;;
18302;SDS011;9277;37.980;23.748;2023-09-07T07:20:35;16.98;;;9.15;;
18302;SDS011;9277;37.980;23.748;2023-09-07T07:23:03;13.88;;;8.77;;
18302;SDS011;9277;37.980;23.748;2023-09-07T07:25:31;17.48;;;9.32;;
18302;SDS011;9277;37.980;23.748;2023-09-07T07:27:58;17.20;;;8.70;;
18302;SDS011;9277;37.980;23.748;2023-09-07T07:30:26;16.85;;;9.18;;
18302;SDS011;9277;37.980;23.748;2023-09-07T07:32:53;16.80;;;8.38;;
18302;SDS011;9277;37.980;23.748;2023-09-07T07:35:20;21.05;;;9.50;;
18302;SDS011;9277;37.980;23.748;2023-09-07T07:37:46;14.65;;;8.93;;
18302;SDS011;9277;37.980;23.748;2023-09-07T07:40:15;17.98;;;8.80;;
18302;SDS011;9277;37.980;23.748;2023-09-07T07:42:43;17.20;;;8.40;;
18302;SDS011;9277;37.980;23.748;2023-09-07T07:45:11;18.05;;;8.75;;
18302;SDS011;9277;37.980;23.748;2023-09-07T07:47:39;16.45;;;8.63;;
18302;SDS011;9277;37.980;23.748;2023-09-07T07:50:06;13.95;;;8.02;;
18302;SDS011;9277;37.980;23.748;2023-09-07T07:52:33;12.95;;;8.75;;
18302;SDS011;9277;37.980;23.748;2023-09-07T07:55:00;13.40;;;8.68;;
18302;SDS011;9277;37.980;23.748;2023-09-07T07:57:29;16.65;;;8.50;;
18302;SDS011;9277;37.980;23.748;2023-09-07T07:59:55;15.73;;;8.73;;
18302;SDS011;9277;37.980;23.748;2023-09-07T08:02:22;13.75;;;8.00;;
18302;SDS011;9277;37.980;23.748;2023-09-07T08:04:49;11.32;;;7.95;;
18302;SDS011;9277;37.980;23.748;2023-09-07T08:07:16;16.15;;;8.48;;
18302;SDS011;9277;37.980;23.748;2023-09-07T08:09:43;10.55;;;7.43;;
18302;SDS011;9277;37.980;23.748;2023-09-07T08:12:09;10.15;;;7.30;;
18302;SDS011;9277;37.980;23.748;2023-09-07T08:14:39;11.43;;;7.25;;
18302;SDS011;9277;37.980;23.748;2023-09-07T08:17:08;13.95;;;7.90;;
18302;SDS011;9277;37.980;23.748;2023-09-07T08:19:34;13.85;;;7.63;;
18302;SDS011;9277;37.980;23.748;2023-09-07T08:22:03;10.25;;;7.00;;
18302;SDS011;9277;37.980;23.748;2023-09-07T08:24:30;13.52;;;7.18;;
18302;SDS011;9277;37.980;23.748;2023-09-07T08:26:56;13.18;;;7.55;;
18302;SDS011;9277;37.980;23.748;2023-09-07T08:29:25;10.20;;;6.38;;
18302;SDS011;9277;37.980;23.748;2023-09-07T08:31:53;10.70;;;6.78;;
18302;SDS011;9277;37.980;23.748;2023-09-07T08:34:20;10.35;;;6.82;;
18302;SDS011;9277;37.980;23.748;2023-09-07T08:36:47;8.30;;;6.47;;
18302;SDS011;9277;37.980;23.748;2023-09-07T08:39:15;13.25;;;6.60;;
18302;SDS011;9277;37.980;23.748;2023-09-07T08:41:43;9.43;;;7.03;;
18302;SDS011;9277;37.980;23.748;2023-09-07T08:44:10;10.18;;;6.72;;
18302;SDS011;9277;37.980;23.748;2023-09-07T08:46:37;11.27;;;6.25;;
18302;SDS011;9277;37.980;23.748;2023-09-07T08:49:05;12.52;;;7.28;;
18302;SDS011;9277;37.980;23.748;2023-09-07T08:51:32;14.95;;;7.03;;
18302;SDS011;9277;37.980;23.748;2023-09-07T08:53:59;10.07;;;6.95;;
18302;SDS011;9277;37.980;23.748;2023-09-07T08:56:26;11.93;;;6.78;;
18302;SDS011;9277;37.980;23.748;2023-09-07T08:58:53;13.57;;;7.40;;
18302;SDS011;9277;37.980;23.748;2023-09-07T09:01:20;10.32;;;6.85;;
18302;SDS011;9277;37.980;23.748;2023-09-07T09:03:47;12.65;;;7.55;;
18302;SDS011;9277;37.980;23.748;2023-09-07T09:06:16;15.15;;;7.72;;
18302;SDS011;9277;37.980;23.748;2023-09-07T09:08:43;13.02;;;7.20;;
18302;SDS011;9277;37.980;23.748;2023-09-07T09:11:11;12.50;;;7.40;;
18302;SDS011;9277;37.980;23.748;2023-09-07T09:13:39;10.02;;;7.40;;
18302;SDS011;9277;37.980;23.748;2023-09-07T09:16:06;12.40;;;6.63;;
18302;SDS011;9277;37.980;23.748;2023-09-07T09:18:32;11.23;;;7.53;;
18302;SDS011;9277;37.980;23.748;2023-09-07T09:20:59;11.50;;;7.20;;
18302;SDS011;9277;37.980;23.748;2023-09-07T09:23:31;14.55;;;8.70;;
18302;SDS011;9277;37.980;23.748;2023-09-07T09:25:59;10.10;;;7.25;;
18302;SDS011;9277;37.980;23.748;2023-09-07T09:28:25;12.93;;;7.82;;
18302;SDS011;9277;37.980;23.748;2023-09-07T09:30:52;12.82;;;8.15;;
18302;SDS011;9277;37.980;23.748;2023-09-07T09:33:19;13.85;;;8.07;;
18302;SDS011;9277;37.980;23.748;2023-09-07T09:35:46;12.40;;;7.07;;
18302;SDS011;9277;37.980;23.748;2023-09-07T09:38:13;17.10;;;7.63;;
18302;SDS011;9277;37.980;23.748;2023-09-07T09:40:42;10.43;;;7.78;;
18302;SDS011;9277;37.980;23.748;2023-09-07T09:43:08;10.43;;;7.53;;
18302;SDS011;9277;37.980;23.748;2023-09-07T09:45:36;15.50;;;7.63;;
18302;SDS011;9277;37.980;23.748;2023-09-07T09:48:03;17.67;;;7.72;;
18302;SDS011;9277;37.980;23.748;2023-09-07T09:50:31;14.48;;;7.68;;
18302;SDS011;9277;37.980;23.748;2023-09-07T09:52:59;14.05;;;7.65;;
18302;SDS011;9277;37.980;23.748;2023-09-07T09:55:26;15.30;;;7.70;;
18302;SDS011;9277;37.980;23.748;2023-09-07T09:57:54;12.98;;;8.00;;
18302;SDS011;9277;37.980;23.748;2023-09-07T10:00:22;15.85;;;8.48;;
18302;SDS011;9277;37.980;23.748;2023-09-07T10:02:55;13.40;;;8.38;;
18302;SDS011;9277;37.980;23.748;2023-09-07T10:05:26;13.57;;;8.65;;
18302;SDS011;9277;37.980;23.748;2023-09-07T10:07:59;15.20;;;8.00;;
18302;SDS011;9277;37.980;23.748;2023-09-07T10:10:31;17.15;;;8.65;;
18302;SDS011;9277;37.980;23.748;2023-09-07T10:12:59;13.60;;;7.78;;
18302;SDS011;9277;37.980;23.748;2023-09-07T10:15:26;12.68;;;7.68;;
18302;SDS011;9277;37.980;23.748;2023-09-07T10:18:04;15.27;;;6.90;;
18302;SDS011;9277;37.980;23.748;2023-09-07T10:20:34;12.45;;;7.10;;
18302;SDS011;9277;37.980;23.748;2023-09-07T10:23:02;16.30;;;7.50;;
18302;SDS011;9277;37.980;23.748;2023-09-07T10:25:29;9.65;;;6.43;;
18302;SDS011;9277;37.980;23.748;2023-09-07T10:28:00;12.07;;;6.85;;
18302;SDS011;9277;37.980;23.748;2023-09-07T10:30:28;8.70;;;6.35;;
18302;SDS011;9277;37.980;23.748;2023-09-07T10:32:57;9.07;;;6.30;;
18302;SDS011;9277;37.980;23.748;2023-09-07T10:35:27;12.20;;;6.40;;
18302;SDS011;9277;37.980;23.748;2023-09-07T10:37:55;10.98;;;6.60;;
18302;SDS011;9277;37.980;23.748;2023-09-07T10:40:22;12.35;;;6.57;;
18302;SDS011;9277;37.980;23.748;2023-09-07T10:42:49;13.07;;;6.80;;
18302;SDS011;9277;37.980;23.748;2023-09-07T10:45:17;13.85;;;6.28;;
18302;SDS011;9277;37.980;23.748;2023-09-07T10:47:44;11.50;;;6.22;;
18302;SDS011;9277;37.980;23.748;2023-09-07T10:50:11;13.45;;;6.65;;
18302;SDS011;9277;37.980;23.748;2023-09-07T10:52:42;10.40;;;6.40;;
18302;SDS011;9277;37.980;23.748;2023-09-07T10:55:10;12.65;;;6.40;;
18302;SDS011;9277;37.980;23.748;2023-09-07T10:57:43;14.15;;;6.28;;
18302;SDS011;9277;37.980;23.748;2023-09-07T11:00:10;15.15;;;6.57;;
18302;SDS011;9277;37.980;23.748;2023-09-07T11:02:42;9.60;;;6.18;;
18302;SDS011;9277;37.980;23.748;2023-09-07T11:05:09;15.32;;;6.55;;
18302;SDS011;9277;37.980;23.748;2023-09-07T11:07:36;9.25;;;5.95;;
18302;SDS011;9277;37.980;23.748;2023-09-07T11:10:05;10.50;;;6.40;;
18302;SDS011;9277;37.980;23.748;2023-09-07T11:12:36;11.38;;;6.75;;
18302;SDS011;9277;37.980;23.748;2023-09-07T11:15:03;12.80;;;6.18;;
18302;SDS011;9277;37.980;23.748;2023-09-07T11:17:29;9.57;;;6.57;;
18302;SDS011;9277;37.980;23.748;2023-09-07T11:19:58;11.90;;;7.20;;
18302;SDS011;9277;37.980;23.748;2023-09-07T11:22:24;11.10;;;6.57;;
18302;SDS011;9277;37.980;23.748;2023-09-07T11:24:51;11.90;;;6.80;;
18302;SDS011;9277;37.980;23.748;2023-09-07T11:27:18;11.95;;;6.57;;
18302;SDS011;9277;37.980;23.748;2023-09-07T11:29:51;9.70;;;6.30;;
18302;SDS011;9277;37.980;23.748;2023-09-07T11:32:18;9.75;;;5.75;;
18302;SDS011;9277;37.980;23.748;2023-09-07T11:34:48;8.32;;;6.30;;
18302;SDS011;9277;37.980;23.748;2023-09-07T11:37:17;9.25;;;6.03;;
18302;SDS011;9277;37.980;23.748;2023-09-07T11:39:44;10.10;;;6.20;;
18302;SDS011;9277;37.980;23.748;2023-09-07T11:42:11;9.95;;;5.80;;
18302;SDS011;9277;37.980;23.748;2023-09-07T11:44:38;10.68;;;6.25;;
18302;SDS011;9277;37.980;23.748;2023-09-07T11:47:04;10.93;;;6.22;;
18302;SDS011;9277;37.980;23.748;2023-09-07T11:49:34;11.15;;;5.85;;
18302;SDS011;9277;37.980;23.748;2023-09-07T11:52:01;13.18;;;6.03;;
18302;SDS011;9277;37.980;23.748;2023-09-07T11:54:29;10.98;;;6.10;;
18302;SDS011;9277;37.980;23.748;2023-09-07T11:56:55;8.65;;;5.53;;
18302;SDS011;9277;37.980;23.748;2023-09-07T11:59:22;9.18;;;5.50;;
18302;SDS011;9277;37.980;23.748;2023-09-07T12:01:49;10.18;;;5.38;;
18302;SDS011;9277;37.980;23.748;2023-09-07T12:04:16;10.00;;;5.65;;
18302;SDS011;9277;37.980;23.748;2023-09-07T12:06:43;10.07;;;5.90;;
18302;SDS011;9277;37.980;23.748;2023-09-07T12:09:09;8.90;;;5.32;;
18302;SDS011;9277;37.980;23.748;2023-09-07T12:11:38;7.15;;;5.10;;
18302;SDS011;9277;37.980;23.748;2023-09-07T12:14:05;7.78;;;5.22;;
18302;SDS011;9277;37.980;23.748;2023-09-07T12:16:32;10.05;;;5.05;;
18302;SDS011;9277;37.980;23.748;2023-09-07T12:18:59;8.88;;;5.60;;
18302;SDS011;9277;37.980;23.748;2023-09-07T12:21:26;10.57;;;5.13;;
18302;SDS011;9277;37.980;23.748;2023-09-07T12:23:52;7.78;;;4.95;;
18302;SDS011;9277;37.980;23.748;2023-09-07T12:26:19;6.03;;;5.05;;
18302;SDS011;9277;37.980;23.748;2023-09-07T12:28:47;6.80;;;4.45;;
18302;SDS011;9277;37.980;23.748;2023-09-07T12:31:14;7.00;;;5.10;;
18302;SDS011;9277;37.980;23.748;2023-09-07T12:33:42;10.98;;;5.28;;
18302;SDS011;9277;37.980;23.748;2023-09-07T12:36:08;7.68;;;5.10;;
18302;SDS011;9277;37.980;23.748;2023-09-07T12:38:36;8.52;;;5.13;;
18302;SDS011;9277;37.980;23.748;2023-09-07T12:41:03;11.63;;;5.40;;
18302;SDS011;9277;37.980;23.748;2023-09-07T12:43:30;8.98;;;5.43;;
18302;SDS011;9277;37.980;23.748;2023-09-07T12:45:58;8.40;;;4.60;;
18302;SDS011;9277;37.980;23.748;2023-09-07T12:48:25;10.50;;;5.18;;
18302;SDS011;9277;37.980;23.748;2023-09-07T12:50:53;6.72;;;4.80;;
18302;SDS011;9277;37.980;23.748;2023-09-07T12:53:20;6.13;;;4.32;;
18302;SDS011;9277;37.980;23.748;2023-09-07T12:55:50;6.72;;;4.00;;
18302;SDS011;9277;37.980;23.748;2023-09-07T12:58:17;7.35;;;4.40;;
18302;SDS011;9277;37.980;23.748;2023-09-07T13:00:44;7.75;;;4.45;;
18302;SDS011;9277;37.980;23.748;2023-09-07T13:03:12;6.82;;;4.18;;
18302;SDS011;9277;37.980;23.748;2023-09-07T13:05:39;9.60;;;4.43;;
18302;SDS011;9277;37.980;23.748;2023-09-07T13:08:05;6.50;;;4.25;;
18302;SDS011;9277;37.980;23.748;2023-09-07T13:10:32;7.72;;;4.35;;
18302;SDS011;9277;37.980;23.748;2023-09-07T13:12:59;5.90;;;4.00;;
18302;SDS011;9277;37.980;23.748;2023-09-07T13:15:26;5.78;;;3.83;;
18302;SDS011;9277;37.980;23.748;2023-09-07T13:17:53;7.03;;;4.00;;
18302;SDS011;9277;37.980;23.748;2023-09-07T13:20:21;7.30;;;4.30;;
18302;SDS011;9277;37.980;23.748;2023-09-07T13:22:48;6.18;;;4.43;;
18302;SDS011;9277;37.980;23.748;2023-09-07T13:25:21;4.15;;;3.38;;
18302;SDS011;9277;37.980;23.748;2023-09-07T13:27:48;8.77;;;3.70;;
18302;SDS011;9277;37.980;23.748;2023-09-07T13:30:15;4.68;;;3.60;;
18302;SDS011;9277;37.980;23.748;2023-09-07T13:32:42;4.22;;;3.67;;
18302;SDS011;9277;37.980;23.748;2023-09-07T13:35:11;5.63;;;3.70;;
18302;SDS011;9277;37.980;23.748;2023-09-07T13:37:39;7.40;;;3.92;;
18302;SDS011;9277;37.980;23.748;2023-09-07T13:40:06;6.63;;;4.10;;
18302;SDS011;9277;37.980;23.748;2023-09-07T13:42:33;6.72;;;3.47;;
18302;SDS011;9277;37.980;23.748;2023-09-07T13:45:04;5.65;;;3.65;;
18302;SDS011;9277;37.980;23.748;2023-09-07T13:47:31;5.13;;;3.65;;
18302;SDS011;9277;37.980;23.748;2023-09-07T13:49:57;6.13;;;3.33;;
18302;SDS011;9277;37.980;23.748;2023-09-07T13:52:26;6.78;;;3.25;;
18302;SDS011;9277;37.980;23.748;2023-09-07T13:54:54;4.63;;;3.33;;
18302;SDS011;9277;37.980;23.748;2023-09-07T13:57:21;5.00;;;3.63;;
18302;SDS011;9277;37.980;23.748;2023-09-07T13:59:48;4.55;;;3.63;;
18302;SDS011;9277;37.980;23.748;2023-09-07T14:02:15;4.93;;;3.42;;
18302;SDS011;9277;37.980;23.748;2023-09-07T14:04:41;3.95;;;3.42;;
18302;SDS011;9277;37.980;23.748;2023-09-07T14:07:08;3.80;;;3.35;;
18302;SDS011;9277;37.980;23.748;2023-09-07T14:09:35;3.90;;;3.40;;
18302;SDS011;9277;37.980;23.748;2023-09-07T14:12:03;3.33;;;3.03;;
18302;SDS011;9277;37.980;23.748;2023-09-07T14:14:30;3.70;;;2.70;;
18302;SDS011;9277;37.980;23.748;2023-09-07T14:16:57;3.85;;;3.15;;
18302;SDS011;9277;37.980;23.748;2023-09-07T14:19:25;3.50;;;3.20;;
18302;SDS011;9277;37.980;23.748;2023-09-07T14:21:52;3.28;;;2.97;;
18302;SDS011;9277;37.980;23.748;2023-09-07T14:24:19;5.57;;;3.35;;
18302;SDS011;9277;37.980;23.748;2023-09-07T14:26:46;6.32;;;3.30;;
18302;SDS011;9277;37.980;23.748;2023-09-07T14:29:14;5.68;;;3.92;;
18302;SDS011;9277;37.980;23.748;2023-09-07T14:31:43;5.05;;;3.33;;
18302;SDS011;9277;37.980;23.748;2023-09-07T14:34:11;9.68;;;3.53;;
18302;SDS011;9277;37.980;23.748;2023-09-07T14:36:37;3.03;;;2.83;;
18302;SDS011;9277;37.980;23.748;2023-09-07T14:39:05;4.07;;;3.63;;
18302;SDS011;9277;37.980;23.748;2023-09-07T14:41:33;3.38;;;3.08;;